createdAt,value
2019-01-02T00:00:50.941Z,20.70
2019-01-02T00:01:50.921Z,19.30
2019-01-02T00:02:50.899Z,23.40
2019-01-02T00:03:50.876Z,21.70
2019-01-02T00:04:50.866Z,17.00
2019-01-02T00:05:50.831Z,21.40
2019-01-02T00:06:50.809Z,22.50
2019-01-02T00:07:50.796Z,31.80
2019-01-02T00:08:50.765Z,24.40
2019-01-02T00:09:50.744Z,26.90
2019-01-02T00:10:50.734Z,21.10
2019-01-02T00:11:50.696Z,24.20
2019-01-02T00:12:50.674Z,20.70
2019-01-02T00:13:50.653Z,22.20
2019-01-02T00:14:50.631Z,24.00
2019-01-02T00:15:50.607Z,21.40
2019-01-02T00:16:50.599Z,22.40
2019-01-02T00:17:50.568Z,24.20
2019-01-02T00:18:50.543Z,24.10
2019-01-02T00:19:50.520Z,22.90
2019-01-02T00:20:50.497Z,23.80
2019-01-02T00:21:50.475Z,20.20
2019-01-02T00:22:50.457Z,21.60
2019-01-02T00:23:50.434Z,21.00
2019-01-02T00:24:50.412Z,23.40
2019-01-02T00:25:50.393Z,22.60
2019-01-02T00:26:50.366Z,22.40
2019-01-02T00:27:50.346Z,28.20
2019-01-02T00:28:50.319Z,25.00
2019-01-02T00:29:50.299Z,19.60
2019-01-02T00:30:50.278Z,20.60
2019-01-02T00:31:50.254Z,21.90
2019-01-02T00:32:50.240Z,22.50
2019-01-02T00:33:50.207Z,20.00
2019-01-02T00:34:50.185Z,20.00
2019-01-02T00:35:50.161Z,22.80
2019-01-02T00:36:50.143Z,23.40
2019-01-02T00:37:50.132Z,25.50
2019-01-02T00:38:50.110Z,25.50
2019-01-02T00:39:50.071Z,28.70
2019-01-02T00:40:50.087Z,20.10
2019-01-02T00:41:50.039Z,21.00
2019-01-02T00:42:50.010Z,24.30
2019-01-02T00:43:49.984Z,22.80
2019-01-02T00:44:49.961Z,22.10
2019-01-02T00:45:49.938Z,26.00
2019-01-02T00:46:49.918Z,28.60
2019-01-02T00:47:49.895Z,20.40
2019-01-02T00:48:49.872Z,20.80
2019-01-02T00:49:49.854Z,20.60
2019-01-02T00:50:49.828Z,22.70
2019-01-02T00:51:49.813Z,20.30
2019-01-02T00:52:49.790Z,25.70
2019-01-02T00:53:49.764Z,28.00
2019-01-02T00:54:49.737Z,19.50
2019-01-02T00:55:49.718Z,19.10
2019-01-02T00:56:49.691Z,24.80
2019-01-02T00:57:49.672Z,20.60
2019-01-02T00:58:49.648Z,18.90
2019-01-02T00:59:49.634Z,20.40
2019-01-02T01:00:49.646Z,26.70
2019-01-02T01:01:49.585Z,21.00
2019-01-02T01:02:49.572Z,25.40
2019-01-02T01:03:49.539Z,27.80
2019-01-02T01:04:49.514Z,22.90
2019-01-02T01:05:49.497Z,22.50
2019-01-02T01:06:49.473Z,23.80
2019-01-02T01:07:49.455Z,25.50
2019-01-02T01:08:49.426Z,26.20
2019-01-02T01:09:49.404Z,19.20
2019-01-02T01:10:49.386Z,26.70
2019-01-02T01:11:49.358Z,23.80
2019-01-02T01:12:49.341Z,21.90
2019-01-02T01:13:49.318Z,25.70
2019-01-02T01:14:49.291Z,30.40
2019-01-02T01:15:49.278Z,23.90
2019-01-02T01:16:49.248Z,23.20
2019-01-02T01:17:49.230Z,21.80
2019-01-02T01:18:49.203Z,22.10
2019-01-02T01:19:49.189Z,21.50
2019-01-02T01:20:49.157Z,23.10
2019-01-02T01:21:49.141Z,23.20
2019-01-02T01:22:49.112Z,27.90
2019-01-02T01:23:49.090Z,19.70
2019-01-02T01:24:49.071Z,25.00
2019-01-02T01:25:49.046Z,26.70
2019-01-02T01:26:49.025Z,22.40
2019-01-02T01:27:49.004Z,24.30
2019-01-02T01:28:48.985Z,21.00
2019-01-02T01:29:48.963Z,21.50
2019-01-02T01:30:48.936Z,26.60
2019-01-02T01:31:48.915Z,25.00
2019-01-02T01:32:48.890Z,28.40
2019-01-02T01:33:48.867Z,23.50
2019-01-02T01:34:48.846Z,21.90
2019-01-02T01:35:48.821Z,22.30
2019-01-02T01:36:48.807Z,21.80
2019-01-02T01:37:48.779Z,19.60
2019-01-02T01:38:48.757Z,22.90
2019-01-02T01:39:48.735Z,25.80
2019-01-02T01:40:48.715Z,18.60
2019-01-02T01:41:48.691Z,23.40
2019-01-02T01:42:48.668Z,24.50
2019-01-02T01:43:48.643Z,22.70
2019-01-02T01:44:48.620Z,28.20
2019-01-02T01:45:48.609Z,21.00
2019-01-02T01:46:48.579Z,22.60
2019-01-02T01:47:48.563Z,25.20
2019-01-02T01:48:48.538Z,23.50
2019-01-02T01:49:48.519Z,23.70
2019-01-02T01:50:48.488Z,24.00
2019-01-02T01:51:48.467Z,23.80
2019-01-02T01:52:48.446Z,20.60
2019-01-02T01:53:48.426Z,21.90
2019-01-02T01:54:48.401Z,25.40
2019-01-02T01:55:48.383Z,22.70
2019-01-02T01:56:48.358Z,22.00
2019-01-02T01:57:48.333Z,19.80
2019-01-02T01:58:48.312Z,18.00
2019-01-02T01:59:48.291Z,23.80
2019-01-02T02:00:48.269Z,29.50
2019-01-02T02:01:48.246Z,23.70
2019-01-02T02:02:48.224Z,18.60
2019-01-02T02:03:48.201Z,23.50
2019-01-02T02:04:48.180Z,20.00
2019-01-02T02:05:48.157Z,22.30
2019-01-02T02:06:48.138Z,21.30
2019-01-02T02:07:48.115Z,21.50
2019-01-02T02:08:48.095Z,25.00
2019-01-02T02:09:48.080Z,27.60
2019-01-02T02:10:48.055Z,23.70
2019-01-02T02:11:48.025Z,21.40
2019-01-02T02:12:48.007Z,24.60
2019-01-02T02:13:47.982Z,22.00
2019-01-02T02:14:47.961Z,23.50
2019-01-02T02:15:47.938Z,24.40
2019-01-02T02:16:47.911Z,20.90
2019-01-02T02:17:47.894Z,24.90
2019-01-02T02:18:47.870Z,19.70
2019-01-02T02:19:47.850Z,21.80
2019-01-02T02:20:47.827Z,21.60
2019-01-02T02:21:47.802Z,25.90
2019-01-02T02:22:47.778Z,25.70
2019-01-02T02:23:47.756Z,21.10
2019-01-02T02:24:47.735Z,21.80
2019-01-02T02:25:47.711Z,20.60
2019-01-02T02:26:47.696Z,22.40
2019-01-02T02:27:47.666Z,26.20
2019-01-02T02:28:47.657Z,23.70
2019-01-02T02:29:47.621Z,22.30
2019-01-02T02:30:47.603Z,25.30
2019-01-02T02:31:47.583Z,27.90
2019-01-02T02:32:47.557Z,22.20
2019-01-02T02:33:47.545Z,18.50
2019-01-02T02:34:47.511Z,26.90
2019-01-02T02:35:47.492Z,25.30
2019-01-02T02:36:47.465Z,21.10
2019-01-02T02:37:47.446Z,21.20
2019-01-02T02:38:47.421Z,22.40
2019-01-02T02:39:47.398Z,21.00
2019-01-02T02:40:47.377Z,27.70
2019-01-02T02:41:47.352Z,20.00
2019-01-02T02:42:47.334Z,28.90
2019-01-02T02:43:47.308Z,21.40
2019-01-02T02:44:47.286Z,26.00
2019-01-02T02:45:47.268Z,23.40
2019-01-02T02:46:47.249Z,23.60
2019-01-02T02:47:47.217Z,21.60
2019-01-02T02:48:47.193Z,30.00
2019-01-02T02:49:47.172Z,21.90
2019-01-02T02:50:47.153Z,28.80
2019-01-02T02:51:47.129Z,27.40
2019-01-02T02:52:47.104Z,28.90
2019-01-02T02:53:47.081Z,24.90
2019-01-02T02:54:47.059Z,28.00
2019-01-02T02:55:47.037Z,23.10
2019-01-02T02:56:47.014Z,25.80
2019-01-02T02:57:46.993Z,26.20
2019-01-02T02:58:46.972Z,27.10
2019-01-02T02:59:46.947Z,24.80
2019-01-02T03:00:46.930Z,23.90
2019-01-02T03:01:46.906Z,22.90
2019-01-02T03:02:46.883Z,27.00
2019-01-02T03:03:46.857Z,21.60
2019-01-02T03:04:46.841Z,29.50
2019-01-02T03:05:46.814Z,26.90
2019-01-02T03:06:48.365Z,27.90
2019-01-02T03:07:46.770Z,25.10
2019-01-02T03:08:46.747Z,25.70
2019-01-02T03:09:46.726Z,29.20
2019-01-02T03:10:46.701Z,20.20
2019-01-02T03:11:46.683Z,25.80
2019-01-02T03:12:46.660Z,27.90
2019-01-02T03:13:46.638Z,27.60
2019-01-02T03:14:46.613Z,28.40
2019-01-02T03:15:46.595Z,24.50
2019-01-02T03:16:46.571Z,26.10
2019-01-02T03:17:46.545Z,23.80
2019-01-02T03:18:46.526Z,26.20
2019-01-02T03:19:46.500Z,27.70
2019-01-02T03:20:46.480Z,26.90
2019-01-02T03:21:46.456Z,27.60
2019-01-02T03:22:46.432Z,24.50
2019-01-02T03:23:46.411Z,34.60
2019-01-02T03:24:46.389Z,24.40
2019-01-02T03:25:46.367Z,28.00
2019-01-02T03:26:46.349Z,20.70
2019-01-02T03:27:46.323Z,29.20
2019-01-02T03:28:46.307Z,25.50
2019-01-02T03:29:46.276Z,30.90
2019-01-02T03:30:46.255Z,27.30
2019-01-02T03:31:46.243Z,23.70
2019-01-02T03:32:46.213Z,22.50
2019-01-02T03:33:46.193Z,27.90
2019-01-02T03:34:46.175Z,23.70
2019-01-02T03:35:46.149Z,29.60
2019-01-02T03:36:46.123Z,25.60
2019-01-02T03:37:46.100Z,25.90
2019-01-02T03:38:46.076Z,30.50
2019-01-02T03:39:46.053Z,29.60
2019-01-02T03:40:46.031Z,28.00
2019-01-02T03:41:46.010Z,33.00
2019-01-02T03:42:45.987Z,30.50
2019-01-02T03:43:45.966Z,25.90
2019-01-02T03:44:45.942Z,25.70
2019-01-02T03:45:45.923Z,24.40
2019-01-02T03:46:45.899Z,20.20
2019-01-02T03:47:45.879Z,26.60
2019-01-02T03:48:45.854Z,31.60
2019-01-02T03:49:45.832Z,26.90
2019-01-02T03:50:45.811Z,30.10
2019-01-02T03:51:45.790Z,24.90
2019-01-02T03:52:45.765Z,23.60
2019-01-02T03:53:45.746Z,28.20
2019-01-02T03:54:45.723Z,27.40
2019-01-02T03:55:45.700Z,25.10
2019-01-02T03:56:45.678Z,24.20
2019-01-02T03:57:45.659Z,25.60
2019-01-02T03:58:45.635Z,27.40
2019-01-02T03:59:45.614Z,27.90
2019-01-02T04:00:45.591Z,26.80
2019-01-02T04:01:45.567Z,21.80
2019-01-02T04:02:45.545Z,27.20
2019-01-02T04:03:45.525Z,26.00
2019-01-02T04:04:45.505Z,27.80
2019-01-02T04:05:45.480Z,24.40
2019-01-02T04:06:45.467Z,27.50
2019-01-02T04:07:45.433Z,27.40
2019-01-02T04:08:45.410Z,23.80
2019-01-02T04:09:45.388Z,27.60
2019-01-02T04:10:45.374Z,23.90
2019-01-02T04:11:45.343Z,29.00
2019-01-02T04:12:45.320Z,34.00
2019-01-02T04:13:45.301Z,34.10
2019-01-02T04:14:45.276Z,32.70
2019-01-02T04:15:45.258Z,30.20
2019-01-02T04:16:45.232Z,31.70
2019-01-02T04:17:45.211Z,28.30
2019-01-02T04:18:45.190Z,25.10
2019-01-02T04:19:45.167Z,28.20
2019-01-02T04:20:45.146Z,27.90
2019-01-02T04:21:45.123Z,32.50
2019-01-02T04:22:45.103Z,29.80
2019-01-02T04:23:45.077Z,25.30
2019-01-02T04:24:45.057Z,29.30
2019-01-02T04:25:45.037Z,27.50
2019-01-02T04:26:45.012Z,29.00
2019-01-02T04:27:44.988Z,25.10
2019-01-02T04:28:44.971Z,23.80
2019-01-02T04:29:44.944Z,30.40
2019-01-02T04:30:44.923Z,25.40
2019-01-02T04:31:44.899Z,29.30
2019-01-02T04:32:44.879Z,40.20
2019-01-02T04:33:44.867Z,29.40
2019-01-02T04:34:44.839Z,28.50
2019-01-02T04:35:44.811Z,24.20
2019-01-02T04:36:44.791Z,30.70
2019-01-02T04:37:44.778Z,29.50
2019-01-02T04:38:44.744Z,22.30
2019-01-02T04:39:44.722Z,23.30
2019-01-02T04:40:44.701Z,26.80
2019-01-02T04:41:44.678Z,25.00
2019-01-02T04:42:44.654Z,28.40
2019-01-02T04:43:44.635Z,28.30
2019-01-02T04:44:44.622Z,30.00
2019-01-02T04:45:44.593Z,26.00
2019-01-02T04:46:44.566Z,28.70
2019-01-02T04:47:44.582Z,28.80
2019-01-02T04:48:44.521Z,26.20
2019-01-02T04:49:44.500Z,31.60
2019-01-02T04:50:44.478Z,28.90
2019-01-02T04:51:44.455Z,34.10
2019-01-02T04:52:44.435Z,26.10
2019-01-02T04:53:44.415Z,28.40
2019-01-02T04:54:44.391Z,24.80
2019-01-02T04:55:44.368Z,32.40
2019-01-02T04:56:44.343Z,30.60
2019-01-02T04:57:44.324Z,24.80
2019-01-02T04:58:44.301Z,25.70
2019-01-02T04:59:44.275Z,31.50
2019-01-02T05:00:44.256Z,22.70
2019-01-02T05:01:44.233Z,25.50
2019-01-02T05:02:44.212Z,28.00
2019-01-02T05:03:44.193Z,25.80
2019-01-02T05:04:44.166Z,29.40
2019-01-02T05:05:44.147Z,27.50
2019-01-02T05:06:44.121Z,27.80
2019-01-02T05:07:44.102Z,25.20
2019-01-02T05:08:44.077Z,27.50
2019-01-02T05:09:44.066Z,22.90
2019-01-02T05:10:44.032Z,26.20
2019-01-02T05:11:44.015Z,25.10
2019-01-02T05:12:43.990Z,27.80
2019-01-02T05:13:43.967Z,28.40
2019-01-02T05:14:43.944Z,28.40
2019-01-02T05:15:43.929Z,32.90
2019-01-02T05:16:43.899Z,27.90
2019-01-02T05:17:43.917Z,29.60
2019-01-02T05:18:43.859Z,31.90
2019-01-02T05:19:43.835Z,31.60
2019-01-02T05:20:43.811Z,31.00
2019-01-02T05:21:43.787Z,31.40
2019-01-02T05:22:43.767Z,27.60
2019-01-02T05:23:43.752Z,27.00
2019-01-02T05:24:43.721Z,29.60
2019-01-02T05:25:43.699Z,26.90
2019-01-02T05:26:43.682Z,27.10
2019-01-02T05:27:43.655Z,26.10
2019-01-02T05:28:43.636Z,31.90
2019-01-02T05:29:43.620Z,29.70
2019-01-02T05:30:43.592Z,28.00
2019-01-02T05:31:43.572Z,28.90
2019-01-02T05:32:43.549Z,27.90
2019-01-02T05:33:43.522Z,26.70
2019-01-02T05:34:43.509Z,26.50
2019-01-02T05:35:43.477Z,28.40
2019-01-02T05:36:43.458Z,27.30
2019-01-02T05:37:43.433Z,23.50
2019-01-02T05:38:43.411Z,27.60
2019-01-02T05:39:43.390Z,28.90
2019-01-02T05:40:43.369Z,31.10
2019-01-02T05:41:43.348Z,23.60
2019-01-02T05:42:43.324Z,25.50
2019-01-02T05:43:43.304Z,33.80
2019-01-02T05:44:43.282Z,26.30
2019-01-02T05:45:43.269Z,27.80
2019-01-02T05:46:43.242Z,25.70
2019-01-02T05:47:43.213Z,22.90
2019-01-02T05:48:43.203Z,29.60
2019-01-02T05:49:43.170Z,25.00
2019-01-02T05:50:43.148Z,26.10
2019-01-02T05:51:43.123Z,26.40
2019-01-02T05:52:43.107Z,31.90
2019-01-02T05:53:43.080Z,32.00
2019-01-02T05:54:43.062Z,27.60
2019-01-02T05:55:43.037Z,22.20
2019-01-02T05:56:43.027Z,25.00
2019-01-02T05:57:42.993Z,25.20
2019-01-02T05:58:42.969Z,24.10
2019-01-02T05:59:42.944Z,25.80
2019-01-02T06:00:42.925Z,29.50
2019-01-02T06:01:42.900Z,23.50
2019-01-02T06:02:42.878Z,26.30
2019-01-02T06:03:42.855Z,27.40
2019-01-02T06:04:42.834Z,22.70
2019-01-02T06:05:42.812Z,25.80
2019-01-02T06:06:42.790Z,28.10
2019-01-02T06:07:42.768Z,21.30
2019-01-02T06:08:42.746Z,27.50
2019-01-02T06:09:42.723Z,31.80
2019-01-02T06:10:42.701Z,24.80
2019-01-02T06:11:42.681Z,22.40
2019-01-02T06:12:42.655Z,28.60
2019-01-02T06:13:42.635Z,23.30
2019-01-02T06:14:42.611Z,27.40
2019-01-02T06:15:42.590Z,24.90
2019-01-02T06:16:42.573Z,25.90
2019-01-02T06:17:42.547Z,22.80
2019-01-02T06:18:42.522Z,30.00
2019-01-02T06:19:42.497Z,24.90
2019-01-02T06:20:42.479Z,25.90
2019-01-02T06:21:42.456Z,24.80
2019-01-02T06:22:42.439Z,26.60
2019-01-02T06:23:42.409Z,29.10
2019-01-02T06:24:42.389Z,21.90
2019-01-02T06:25:42.363Z,24.40
2019-01-02T06:26:42.343Z,31.10
2019-01-02T06:27:42.329Z,26.70
2019-01-02T06:28:42.298Z,25.20
2019-01-02T06:29:42.280Z,26.90
2019-01-02T06:30:42.253Z,30.60
2019-01-02T06:31:42.229Z,29.90
2019-01-02T06:32:42.212Z,24.10
2019-01-02T06:33:42.192Z,29.00
2019-01-02T06:34:42.164Z,22.10
2019-01-02T06:35:42.144Z,24.70
2019-01-02T06:36:42.128Z,26.10
2019-01-02T06:37:42.098Z,23.20
2019-01-02T06:38:42.077Z,33.10
2019-01-02T06:39:42.064Z,28.30
2019-01-02T06:40:42.031Z,25.50
2019-01-02T06:41:42.017Z,25.70
2019-01-02T06:42:41.987Z,30.10
2019-01-02T06:43:41.965Z,32.40
2019-01-02T06:44:41.945Z,26.90
2019-01-02T06:45:41.916Z,26.90
2019-01-02T06:46:41.893Z,29.80
2019-01-02T06:47:41.877Z,31.10
2019-01-02T06:48:41.850Z,29.10
2019-01-02T06:49:41.829Z,30.20
2019-01-02T06:50:41.812Z,27.90
2019-01-02T06:51:41.784Z,30.70
2019-01-02T06:52:41.764Z,23.20
2019-01-02T06:53:41.736Z,24.40
2019-01-02T06:54:41.723Z,26.40
2019-01-02T06:55:41.692Z,25.50
2019-01-02T06:56:41.670Z,28.30
2019-01-02T06:57:41.654Z,27.40
2019-01-02T06:58:41.626Z,30.20
2019-01-02T06:59:41.611Z,27.60
2019-01-02T07:00:41.584Z,26.40
2019-01-02T07:01:41.559Z,24.30
2019-01-02T07:02:41.541Z,25.70
2019-01-02T07:03:41.515Z,29.30
2019-01-02T07:04:41.492Z,30.20
2019-01-02T07:05:41.473Z,28.90
2019-01-02T07:06:41.456Z,29.10
2019-01-02T07:07:41.430Z,27.50
2019-01-02T07:08:41.418Z,26.40
2019-01-02T07:09:41.379Z,23.50
2019-01-02T07:10:41.359Z,30.10
2019-01-02T07:11:41.338Z,29.40
2019-01-02T07:12:41.313Z,29.00
2019-01-02T07:13:41.291Z,31.10
2019-01-02T07:14:41.270Z,28.00
2019-01-02T07:15:41.246Z,23.90
2019-01-02T07:16:41.224Z,31.50
2019-01-02T07:17:41.202Z,27.60
2019-01-02T07:18:41.180Z,37.30
2019-01-02T07:19:41.154Z,25.40
2019-01-02T07:20:41.133Z,23.40
2019-01-02T07:21:41.117Z,32.70
2019-01-02T07:22:41.093Z,26.50
2019-01-02T07:23:41.065Z,29.70
2019-01-02T07:24:41.043Z,27.00
2019-01-02T07:25:41.024Z,25.50
2019-01-02T07:26:41.002Z,25.00
2019-01-02T07:27:40.980Z,31.20
2019-01-02T07:28:40.958Z,25.50
2019-01-02T07:29:40.934Z,30.90
2019-01-02T07:30:40.913Z,26.90
2019-01-02T07:31:40.894Z,24.10
2019-01-02T07:32:40.869Z,27.40
2019-01-02T07:33:40.849Z,34.10
2019-01-02T07:34:40.829Z,26.90
2019-01-02T07:35:40.803Z,31.00
2019-01-02T07:36:40.779Z,26.70
2019-01-02T07:37:40.756Z,27.30
2019-01-02T07:38:40.753Z,24.00
2019-01-02T07:39:40.714Z,25.90
2019-01-02T07:40:40.691Z,23.90
2019-01-02T07:41:40.679Z,26.20
2019-01-02T07:42:40.646Z,25.20
2019-01-02T07:43:40.622Z,30.50
2019-01-02T07:44:40.600Z,22.40
2019-01-02T07:45:40.578Z,25.20
2019-01-02T07:46:40.561Z,26.50
2019-01-02T07:47:40.537Z,27.20
2019-01-02T07:48:40.527Z,25.60
2019-01-02T07:49:40.493Z,26.60
2019-01-02T07:50:40.466Z,26.30
2019-01-02T07:51:40.443Z,29.80
2019-01-02T07:52:40.423Z,21.30
2019-01-02T07:53:40.402Z,21.20
2019-01-02T07:54:40.380Z,26.40
2019-01-02T07:55:40.356Z,27.60
2019-01-02T07:56:40.338Z,24.50
2019-01-02T07:57:40.310Z,21.50
2019-01-02T07:58:40.288Z,27.90
2019-01-02T07:59:40.264Z,23.50
2019-01-02T08:00:40.247Z,24.80
2019-01-02T08:01:40.225Z,26.10
2019-01-02T08:02:40.214Z,26.20
2019-01-02T08:03:40.186Z,24.50
2019-01-02T08:04:40.158Z,21.70
2019-01-02T08:05:40.134Z,23.50
2019-01-02T08:06:40.111Z,24.20
2019-01-02T08:07:40.084Z,20.00
2019-01-02T08:08:40.062Z,25.60
2019-01-02T08:09:40.044Z,21.70
2019-01-02T08:10:40.031Z,22.00
2019-01-02T08:11:39.996Z,21.20
2019-01-02T08:12:39.977Z,25.20
2019-01-02T08:13:40.954Z,26.10
2019-01-02T08:14:39.932Z,20.20
2019-01-02T08:15:39.907Z,20.20
2019-01-02T08:16:39.886Z,25.40
2019-01-02T08:17:39.869Z,19.80
2019-01-02T08:18:39.843Z,23.50
2019-01-02T08:19:39.815Z,21.20
2019-01-02T08:20:39.810Z,20.10
2019-01-02T08:21:39.774Z,20.30
2019-01-02T08:22:39.749Z,21.70
2019-01-02T08:23:39.730Z,25.60
2019-01-02T08:24:39.708Z,22.80
2019-01-02T08:25:39.681Z,25.90
2019-01-02T08:26:39.660Z,23.90
2019-01-02T08:27:39.637Z,22.80
2019-01-02T08:28:39.614Z,25.40
2019-01-02T08:29:39.597Z,23.60
2019-01-02T08:30:39.569Z,20.40
2019-01-02T08:31:39.555Z,28.80
2019-01-02T08:32:39.529Z,27.10
2019-01-02T08:33:39.503Z,24.80
2019-01-02T08:34:39.485Z,23.40
2019-01-02T08:35:39.461Z,21.20
2019-01-02T08:36:39.436Z,22.00
2019-01-02T08:37:39.420Z,19.60
2019-01-02T08:38:39.390Z,20.00
2019-01-02T08:39:39.387Z,26.30
2019-01-02T08:40:39.345Z,17.80
2019-01-02T08:41:39.328Z,25.50
2019-01-02T08:42:39.305Z,22.70
2019-01-02T08:43:39.279Z,20.00
2019-01-02T08:44:39.257Z,22.50
2019-01-02T08:45:39.235Z,22.80
2019-01-02T08:46:39.227Z,21.80
2019-01-02T08:47:39.196Z,21.00
2019-01-02T08:48:39.175Z,22.90
2019-01-02T08:49:39.152Z,22.10
2019-01-02T08:50:39.125Z,24.50
2019-01-02T08:51:39.103Z,26.80
2019-01-02T08:52:39.083Z,22.60
2019-01-02T08:53:39.066Z,22.80
2019-01-02T08:54:39.040Z,22.80
2019-01-02T08:55:39.020Z,24.30
2019-01-02T08:56:39.000Z,19.90
2019-01-02T08:57:38.978Z,22.50
2019-01-02T08:58:38.959Z,19.60
2019-01-02T08:59:38.938Z,21.60
2019-01-02T09:00:38.923Z,23.20
2019-01-02T09:01:38.897Z,30.80
2019-01-02T09:02:38.882Z,25.00
2019-01-02T09:03:38.865Z,26.60
2019-01-02T09:04:38.852Z,23.50
2019-01-02T09:05:38.827Z,21.20
2019-01-02T09:06:38.813Z,22.00
2019-01-02T09:07:38.791Z,20.50
2019-01-02T09:08:38.775Z,24.80
2019-01-02T09:09:38.757Z,19.60
2019-01-02T09:10:38.742Z,22.00
2019-01-02T09:11:38.723Z,21.40
2019-01-02T09:12:38.708Z,18.90
2019-01-02T09:13:38.694Z,21.10
2019-01-02T09:14:38.685Z,19.40
2019-01-02T09:15:38.660Z,21.70
2019-01-02T09:16:38.653Z,19.40
2019-01-02T09:17:38.635Z,15.10
2019-01-02T09:18:38.619Z,21.90
2019-01-02T09:19:38.604Z,20.00
2019-01-02T09:20:38.590Z,18.70
2019-01-02T09:21:38.581Z,19.20
2019-01-02T09:22:38.567Z,15.20
2019-01-02T09:23:38.548Z,23.10
2019-01-02T09:24:38.533Z,21.30
2019-01-02T09:25:38.519Z,21.70
2019-01-02T09:26:38.507Z,19.30
2019-01-02T09:27:38.502Z,23.00
2019-01-02T09:28:38.480Z,19.30
2019-01-02T09:29:38.471Z,23.10
2019-01-02T09:30:38.454Z,20.80
2019-01-02T09:31:38.442Z,20.30
2019-01-02T09:32:38.433Z,20.40
2019-01-02T09:33:38.419Z,21.00
2019-01-02T09:34:38.427Z,21.40
2019-01-02T09:35:38.394Z,19.10
2019-01-02T09:36:38.389Z,19.20
2019-01-02T09:37:38.373Z,18.30
2019-01-02T09:38:38.359Z,19.70
2019-01-02T09:39:38.347Z,21.50
2019-01-02T09:40:38.383Z,21.10
2019-01-02T09:41:38.332Z,20.20
2019-01-02T09:42:38.313Z,17.10
2019-01-02T09:43:38.302Z,21.30
2019-01-02T09:44:38.289Z,20.90
2019-01-02T09:45:38.280Z,18.70
2019-01-02T09:46:38.285Z,18.90
2019-01-02T09:47:38.257Z,18.50
2019-01-02T09:48:38.248Z,20.80
2019-01-02T09:49:38.234Z,23.60
2019-01-02T09:50:38.226Z,18.50
2019-01-02T09:51:38.212Z,19.20
2019-01-02T09:52:38.197Z,18.60
2019-01-02T09:53:38.190Z,19.00
2019-01-02T09:54:38.174Z,21.30
2019-01-02T09:55:38.163Z,18.00
2019-01-02T09:56:38.152Z,16.40
2019-01-02T09:57:38.154Z,16.50
2019-01-02T09:58:38.138Z,18.10
2019-01-02T09:59:38.126Z,20.40
2019-01-02T10:00:38.111Z,20.20
2019-01-02T10:01:38.103Z,19.90
2019-01-02T10:02:38.088Z,20.20
2019-01-02T10:03:38.083Z,17.90
2019-01-02T10:04:38.077Z,20.60
2019-01-02T10:05:38.069Z,19.10
2019-01-02T10:06:38.048Z,18.90
2019-01-02T10:07:38.041Z,19.20
2019-01-02T10:08:38.032Z,18.70
2019-01-02T10:09:38.020Z,19.80
2019-01-02T10:10:38.007Z,19.70
2019-01-02T10:11:37.996Z,21.40
2019-01-02T10:12:37.986Z,16.90
2019-01-02T10:13:37.975Z,21.90
2019-01-02T10:14:37.966Z,24.20
2019-01-02T10:15:37.968Z,22.10
2019-01-02T10:16:37.951Z,19.40
2019-01-02T10:17:37.933Z,20.00
2019-01-02T10:18:37.925Z,19.60
2019-01-02T10:19:37.919Z,19.50
2019-01-02T10:20:43.712Z,17.10
2019-01-02T10:21:37.896Z,16.90
2019-01-02T10:22:37.885Z,17.80
2019-01-02T10:23:37.870Z,19.30
2019-01-02T10:24:37.860Z,17.40
2019-01-02T10:25:37.850Z,19.90
2019-01-02T10:26:37.839Z,20.70
2019-01-02T10:27:37.826Z,16.40
2019-01-02T10:28:37.828Z,20.30
2019-01-02T10:29:37.807Z,21.70
2019-01-02T10:30:37.798Z,20.50
2019-01-02T10:31:37.805Z,21.30
2019-01-02T10:32:37.775Z,19.30
2019-01-02T10:33:37.763Z,20.10
2019-01-02T10:34:37.750Z,21.10
2019-01-02T10:35:37.748Z,20.20
2019-01-02T10:36:37.734Z,17.60
2019-01-02T10:37:37.720Z,18.90
2019-01-02T10:38:37.715Z,17.40
2019-01-02T10:39:37.695Z,18.00
2019-01-02T10:40:37.693Z,16.70
2019-01-02T10:41:37.689Z,17.80
2019-01-02T10:42:37.662Z,18.60
2019-01-02T10:43:37.658Z,20.60
2019-01-02T10:44:37.641Z,17.40
2019-01-02T10:45:37.634Z,17.90
2019-01-02T10:46:37.615Z,18.40
2019-01-02T10:47:37.603Z,18.80
2019-01-02T10:48:37.595Z,15.70
2019-01-02T10:49:37.574Z,13.90
2019-01-02T10:50:37.567Z,15.20
2019-01-02T10:51:37.548Z,18.70
2019-01-02T10:52:37.537Z,16.30
2019-01-02T10:53:37.525Z,14.30
2019-01-02T10:54:37.510Z,15.00
2019-01-02T10:55:37.507Z,14.90
2019-01-02T10:56:37.488Z,17.10
2019-01-02T10:57:37.474Z,14.70
2019-01-02T10:58:37.462Z,14.30
2019-01-02T10:59:37.449Z,13.60
2019-01-02T11:00:37.437Z,14.90
2019-01-02T11:01:37.429Z,14.00
2019-01-02T11:02:37.412Z,10.90
2019-01-02T11:03:37.397Z,11.40
2019-01-02T11:04:37.390Z,14.70
2019-01-02T11:05:37.376Z,9.50
2019-01-02T11:06:37.374Z,11.20
2019-01-02T11:07:37.353Z,11.00
2019-01-02T11:08:37.345Z,13.30
2019-01-02T11:09:37.327Z,14.20
2019-01-02T11:10:37.313Z,11.90
2019-01-02T11:11:37.305Z,10.50
2019-01-02T11:12:37.285Z,11.00
2019-01-02T11:13:37.279Z,11.00
2019-01-02T11:14:37.264Z,12.10
2019-01-02T11:15:37.252Z,11.70
2019-01-02T11:16:37.238Z,9.70
2019-01-02T11:17:37.227Z,10.30
2019-01-02T11:18:37.213Z,13.50
2019-01-02T11:19:37.205Z,11.00
2019-01-02T11:20:37.190Z,11.00
2019-01-02T11:21:37.179Z,11.70
2019-01-02T11:22:37.160Z,12.30
2019-01-02T11:23:37.145Z,8.80
2019-01-02T11:24:37.135Z,10.60
2019-01-02T11:25:37.127Z,13.50
2019-01-02T11:26:37.107Z,11.00
2019-01-02T11:27:37.097Z,11.90
2019-01-02T11:28:37.079Z,11.60
2019-01-02T11:29:37.065Z,10.90
2019-01-02T11:30:37.057Z,13.30
2019-01-02T11:31:37.046Z,9.60
2019-01-02T11:32:37.025Z,10.80
2019-01-02T11:33:37.013Z,8.10
2019-01-02T11:34:36.991Z,11.50
2019-01-02T11:35:36.980Z,10.60
2019-01-02T11:36:36.973Z,7.80
2019-01-02T11:37:36.950Z,10.50
2019-01-02T11:38:36.934Z,6.70
2019-01-02T11:39:36.922Z,10.90
2019-01-02T11:40:36.908Z,8.20
2019-01-02T11:41:36.893Z,6.50
2019-01-02T11:42:36.875Z,8.50
2019-01-02T11:43:36.861Z,9.80
2019-01-02T11:44:36.848Z,9.40
2019-01-02T11:45:36.836Z,7.90
2019-01-02T11:46:36.825Z,10.10
2019-01-02T11:47:36.811Z,11.90
2019-01-02T11:48:36.791Z,9.30
2019-01-02T11:49:36.777Z,10.00
2019-01-02T11:50:36.764Z,9.60
2019-01-02T11:51:36.757Z,7.70
2019-01-02T11:52:36.739Z,10.70
2019-01-02T11:53:36.721Z,8.10
2019-01-02T11:54:36.710Z,11.00
2019-01-02T11:55:36.697Z,6.20
2019-01-02T11:56:36.693Z,6.00
2019-01-02T11:57:36.669Z,8.30
2019-01-02T11:58:36.659Z,6.90
2019-01-02T11:59:36.651Z,8.10
2019-01-02T12:00:36.633Z,6.90
2019-01-02T12:01:36.613Z,6.80
2019-01-02T12:02:36.608Z,7.20
2019-01-02T12:03:36.590Z,8.00
2019-01-02T12:04:36.574Z,5.30
2019-01-02T12:05:36.559Z,6.00
2019-01-02T12:06:36.567Z,6.00
2019-01-02T12:07:36.538Z,8.80
2019-01-02T12:08:36.521Z,6.80
2019-01-02T12:09:36.514Z,4.90
2019-01-02T12:10:36.502Z,5.30
2019-01-02T12:11:36.479Z,8.10
2019-01-02T12:12:36.465Z,4.80
2019-01-02T12:13:36.450Z,7.30
2019-01-02T12:14:36.443Z,4.20
2019-01-02T12:15:36.425Z,4.90
2019-01-02T12:16:36.408Z,5.50
2019-01-02T12:17:36.395Z,5.60
2019-01-02T12:18:36.383Z,8.40
2019-01-02T12:19:36.365Z,7.40
2019-01-02T12:20:36.357Z,4.70
2019-01-02T12:21:36.338Z,6.10
2019-01-02T12:22:36.325Z,6.40
2019-01-02T12:23:36.308Z,6.60
2019-01-02T12:24:36.299Z,8.10
2019-01-02T12:25:36.282Z,5.90
2019-01-02T12:26:36.266Z,6.40
2019-01-02T12:27:36.254Z,5.20
2019-01-02T12:28:36.237Z,5.20
2019-01-02T12:29:36.229Z,5.50
2019-01-02T12:30:36.210Z,6.70
2019-01-02T12:31:36.204Z,5.50
2019-01-02T12:32:36.184Z,6.40
2019-01-02T12:33:36.168Z,7.40
2019-01-02T12:34:36.156Z,7.20
2019-01-02T12:35:36.137Z,5.70
2019-01-02T12:36:36.126Z,6.10
2019-01-02T12:37:36.110Z,5.80
2019-01-02T12:38:36.094Z,5.70
2019-01-02T12:39:36.083Z,4.30
2019-01-02T12:40:36.062Z,5.70
2019-01-02T12:41:36.049Z,6.10
2019-01-02T12:42:36.035Z,7.80
2019-01-02T12:43:36.015Z,6.40
2019-01-02T12:44:35.999Z,7.10
2019-01-02T12:45:35.985Z,4.50
2019-01-02T12:46:35.976Z,6.00
2019-01-02T12:47:35.953Z,6.00
2019-01-02T12:48:35.938Z,6.10
2019-01-02T12:49:35.932Z,5.70
2019-01-02T12:50:35.907Z,6.90
2019-01-02T12:51:35.889Z,8.90
2019-01-02T12:52:35.871Z,4.40
2019-01-02T12:53:35.861Z,57.60
2019-01-02T12:54:35.835Z,10.50
2019-01-02T12:55:35.833Z,7.50